createdAt,value
2022-11-17T00:00:59.192Z,944.39
2022-11-17T00:01:59.163Z,944.42
2022-11-17T00:02:59.070Z,944.41
2022-11-17T00:03:59.033Z,944.43
2022-11-17T00:04:59.178Z,944.5
2022-11-17T00:05:59.238Z,944.48
2022-11-17T00:06:59.226Z,944.57
2022-11-17T00:08:59.283Z,944.66
2022-11-17T00:09:59.061Z,944.58
2022-11-17T00:10:59.279Z,944.52
2022-11-17T00:11:59.090Z,944.49
2022-11-17T00:12:59.325Z,944.4
2022-11-17T00:14:00.096Z,944.38
2022-11-17T00:14:59.184Z,944.35
2022-11-17T00:15:59.212Z,944.34
2022-11-17T00:16:59.226Z,944.3
2022-11-17T00:17:59.110Z,944.33
2022-11-17T00:18:59.278Z,944.35
2022-11-17T00:19:59.266Z,944.38
2022-11-17T00:20:59.211Z,944.35
2022-11-17T00:21:59.160Z,944.36
2022-11-17T00:22:59.140Z,944.39
2022-11-17T00:23:59.189Z,944.41
2022-11-17T00:24:59.281Z,944.44
2022-11-17T00:25:59.191Z,944.48
2022-11-17T00:26:59.296Z,944.45
2022-11-17T00:28:59.259Z,944.51
2022-11-17T00:29:59.256Z,944.55
2022-11-17T00:30:59.341Z,944.56
2022-11-17T00:32:59.245Z,944.54
2022-11-17T00:35:59.334Z,944.58
2022-11-17T00:36:59.206Z,944.54
2022-11-17T00:37:59.169Z,944.55
2022-11-17T00:38:59.162Z,944.61
2022-11-17T00:40:00.914Z,944.55
2022-11-17T00:40:59.200Z,944.52
2022-11-17T00:41:59.263Z,944.51
2022-11-17T00:42:59.210Z,944.46
2022-11-17T00:43:59.365Z,944.43
2022-11-17T00:44:59.158Z,944.44
2022-11-17T00:45:59.254Z,944.52
2022-11-17T00:46:59.139Z,944.54
2022-11-17T00:47:59.217Z,944.56
2022-11-17T00:48:59.399Z,944.53
2022-11-17T00:49:59.339Z,944.52
2022-11-17T00:50:59.253Z,944.44
2022-11-17T00:51:59.263Z,944.45
2022-11-17T00:52:59.270Z,944.43
2022-11-17T00:53:59.216Z,944.38
2022-11-17T00:54:59.430Z,944.37
2022-11-17T00:55:59.318Z,944.35
2022-11-17T00:58:59.355Z,944.33
2022-11-17T00:59:59.458Z,944.34
2022-11-17T01:00:59.440Z,944.33
2022-11-17T01:01:59.287Z,944.32
2022-11-17T01:03:00.273Z,944.36
2022-11-17T01:03:59.236Z,944.39
2022-11-17T01:04:59.393Z,944.38
2022-11-17T01:05:59.261Z,944.39
2022-11-17T01:06:59.269Z,944.44
2022-11-17T01:08:59.293Z,944.47
2022-11-17T01:12:59.273Z,944.46
2022-11-17T01:14:59.469Z,944.38
2022-11-17T01:15:59.428Z,944.37
2022-11-17T01:16:59.236Z,944.34
2022-11-17T01:18:59.245Z,944.3
2022-11-17T01:19:59.262Z,944.23
2022-11-17T01:21:59.377Z,944.2
2022-11-17T01:23:59.387Z,944.16
2022-11-17T01:24:59.267Z,944.1
2022-11-17T01:25:59.434Z,944.04
2022-11-17T01:26:59.267Z,943.97
2022-11-17T01:27:59.363Z,943.88
2022-11-17T01:28:59.377Z,943.86
2022-11-17T01:29:59.337Z,943.84
2022-11-17T01:30:59.434Z,943.78
2022-11-17T01:31:59.473Z,943.71
2022-11-17T01:32:59.324Z,943.72
2022-11-17T01:33:59.336Z,943.63
2022-11-17T01:35:00.429Z,943.66
2022-11-17T01:35:59.392Z,943.68
2022-11-17T01:38:00.516Z,943.66
2022-11-17T01:38:59.263Z,943.6
2022-11-17T01:39:59.396Z,943.56
2022-11-17T01:40:59.452Z,943.6
2022-11-17T01:41:59.361Z,943.56
2022-11-17T01:42:59.293Z,943.51
2022-11-17T01:43:59.313Z,943.5
2022-11-17T01:44:59.364Z,943.48
2022-11-17T01:45:59.357Z,943.49
2022-11-17T01:47:01.000Z,943.37
2022-11-17T01:47:59.441Z,943.33
2022-11-17T01:48:59.485Z,943.44
2022-11-17T01:49:59.334Z,943.41
2022-11-17T01:50:59.485Z,943.36
2022-11-17T01:51:59.365Z,943.39
2022-11-17T01:52:59.436Z,943.36
2022-11-17T01:53:59.387Z,943.37
2022-11-17T01:54:59.379Z,943.39
2022-11-17T01:55:59.498Z,943.33
2022-11-17T01:56:59.341Z,943.29
2022-11-17T01:57:59.571Z,943.27
2022-11-17T01:58:59.419Z,943.2
2022-11-17T01:59:59.441Z,943.18
2022-11-17T02:00:59.474Z,943.15
2022-11-17T02:01:59.452Z,943.07
2022-11-17T02:02:59.514Z,943
2022-11-17T02:03:59.481Z,942.98
2022-11-17T02:05:05.080Z,942.91
2022-11-17T02:05:59.445Z,942.84
2022-11-17T02:06:59.485Z,942.8
2022-11-17T02:07:59.413Z,942.75
2022-11-17T02:08:59.356Z,942.7
2022-11-17T02:09:59.385Z,942.67
2022-11-17T02:10:59.565Z,942.61
2022-11-17T02:11:59.502Z,942.59
2022-11-17T02:13:59.456Z,942.56
2022-11-17T02:14:59.458Z,942.51
2022-11-17T02:15:59.583Z,942.46
2022-11-17T02:17:04.878Z,942.38
2022-11-17T02:17:59.577Z,942.36
2022-11-17T02:18:59.505Z,942.24
2022-11-17T02:19:59.415Z,942.12
2022-11-17T02:20:59.519Z,942.07
2022-11-17T02:21:59.431Z,941.97
2022-11-17T02:22:59.550Z,941.9
2022-11-17T02:23:59.533Z,941.84
2022-11-17T02:24:59.410Z,941.82
2022-11-17T02:25:59.461Z,941.8
2022-11-17T02:26:59.485Z,941.82
2022-11-17T02:27:59.513Z,941.84
2022-11-17T02:28:59.559Z,941.85
2022-11-17T02:29:59.487Z,941.89
2022-11-17T02:30:59.601Z,941.93
2022-11-17T02:31:59.552Z,942.01
2022-11-17T02:32:59.500Z,942.12
2022-11-17T02:33:59.413Z,942.13
2022-11-17T02:34:59.521Z,942.24
2022-11-17T02:35:59.530Z,942.31
2022-11-17T02:36:59.433Z,942.29
2022-11-17T02:37:59.579Z,942.3
2022-11-17T02:38:59.532Z,942.31
2022-11-17T02:39:59.421Z,942.34
2022-11-17T02:40:59.575Z,942.38
2022-11-17T02:41:59.529Z,942.47
2022-11-17T02:42:59.503Z,942.55
2022-11-17T02:43:59.425Z,942.66
2022-11-17T02:44:59.547Z,942.81
2022-11-17T02:45:59.576Z,942.87
2022-11-17T02:46:59.529Z,942.94
2022-11-17T02:47:59.624Z,943.04
2022-11-17T02:48:59.628Z,943.12
2022-11-17T02:49:59.613Z,943.2
2022-11-17T02:50:59.490Z,943.21
2022-11-17T02:51:59.598Z,943.28
2022-11-17T02:53:59.498Z,943.22
2022-11-17T02:54:59.545Z,943.17
2022-11-17T02:55:59.472Z,943.26
2022-11-17T02:56:59.667Z,943.33
2022-11-17T02:57:59.498Z,943.4
2022-11-17T02:58:59.542Z,943.44
2022-11-17T02:59:59.644Z,943.41
2022-11-17T03:00:59.624Z,943.36
2022-11-17T03:01:59.574Z,943.27
2022-11-17T03:02:59.496Z,943.19
2022-11-17T03:03:59.632Z,943.2
2022-11-17T03:04:59.693Z,943.19
2022-11-17T03:06:00.871Z,943.23
2022-11-17T03:06:59.675Z,943.21
2022-11-17T03:07:59.537Z,943.24
2022-11-17T03:08:59.682Z,943.2
2022-11-17T03:09:59.490Z,943.16
2022-11-17T03:10:59.638Z,943.09
2022-11-17T03:11:59.681Z,943
2022-11-17T03:12:59.637Z,942.97
2022-11-17T03:13:59.574Z,942.87
2022-11-17T03:14:59.673Z,942.92
2022-11-17T03:15:59.609Z,942.9
2022-11-17T03:16:59.572Z,942.86
2022-11-17T03:17:59.468Z,942.83
2022-11-17T03:18:59.607Z,942.84
2022-11-17T03:19:59.607Z,942.83
2022-11-17T03:20:59.685Z,942.82
2022-11-17T03:21:59.715Z,942.8
2022-11-17T03:23:59.580Z,942.78
2022-11-17T03:24:59.677Z,942.75
2022-11-17T03:25:59.692Z,942.7
2022-11-17T03:27:59.660Z,942.67
2022-11-17T03:28:59.669Z,942.69
2022-11-17T03:30:59.626Z,942.75
2022-11-17T03:31:59.717Z,942.74
2022-11-17T03:32:59.716Z,942.79
2022-11-17T03:33:59.612Z,942.77
2022-11-17T03:35:00.990Z,942.78
2022-11-17T03:35:59.657Z,942.73
2022-11-17T03:37:59.758Z,942.76
2022-11-17T03:38:59.752Z,942.74
2022-11-17T03:40:59.769Z,942.77
2022-11-17T03:41:59.715Z,942.76
2022-11-17T03:42:59.625Z,942.86
2022-11-17T03:43:59.781Z,942.92
2022-11-17T03:44:59.729Z,942.99
2022-11-17T03:45:59.648Z,943.04
2022-11-17T03:47:01.032Z,943.09
2022-11-17T03:47:59.704Z,943.11
2022-11-17T03:48:59.702Z,943.16
2022-11-17T03:50:59.738Z,943.15
2022-11-17T03:51:59.620Z,943.07
2022-11-17T03:52:59.709Z,943.05
2022-11-17T03:53:59.803Z,943.02
2022-11-17T03:54:59.806Z,942.98
2022-11-17T03:56:01.090Z,942.88
2022-11-17T03:56:59.761Z,942.81
2022-11-17T03:57:59.695Z,942.76
2022-11-17T03:58:59.760Z,942.71
2022-11-17T03:59:59.754Z,942.74
2022-11-17T04:01:00.719Z,942.73
2022-11-17T04:01:59.668Z,942.69
2022-11-17T04:02:59.812Z,942.67
2022-11-17T04:03:59.909Z,942.68
2022-11-17T04:05:59.712Z,942.65
2022-11-17T04:07:00.732Z,942.61
2022-11-17T04:07:59.845Z,942.63
2022-11-17T04:08:59.666Z,942.52
2022-11-17T04:09:59.710Z,942.55
2022-11-17T04:10:59.787Z,942.57
2022-11-17T04:11:59.785Z,942.53
2022-11-17T04:12:59.620Z,942.55
2022-11-17T04:13:59.775Z,942.51
2022-11-17T04:14:59.733Z,942.49
2022-11-17T04:15:59.833Z,942.55
2022-11-17T04:16:59.657Z,942.52
2022-11-17T04:17:59.640Z,942.54
2022-11-17T04:18:59.776Z,942.59
2022-11-17T04:19:59.796Z,942.6
2022-11-17T04:20:59.731Z,942.68
2022-11-17T04:21:59.795Z,942.67
2022-11-17T04:22:59.779Z,942.64
2022-11-17T04:23:59.635Z,942.63
2022-11-17T04:25:00.727Z,942.65
2022-11-17T04:25:59.812Z,942.68
2022-11-17T04:26:59.716Z,942.62
2022-11-17T04:28:59.807Z,942.63
2022-11-17T04:29:59.848Z,942.62
2022-11-17T04:30:59.730Z,942.6
2022-11-17T04:31:59.774Z,942.62
2022-11-17T04:32:59.737Z,942.64
2022-11-17T04:33:59.747Z,942.61
2022-11-17T04:34:59.782Z,942.58
2022-11-17T04:35:59.794Z,942.49
2022-11-17T04:37:02.759Z,942.52
2022-11-17T04:37:59.863Z,942.51
2022-11-17T04:38:59.683Z,942.49
2022-11-17T04:39:59.832Z,942.46
2022-11-17T04:40:59.826Z,942.49
2022-11-17T04:41:59.822Z,942.51
2022-11-17T04:42:59.853Z,942.56
2022-11-17T04:43:59.786Z,942.58
2022-11-17T04:45:59.770Z,942.59
2022-11-17T04:46:59.790Z,942.64
2022-11-17T04:47:59.913Z,942.63
2022-11-17T04:48:59.809Z,942.68
2022-11-17T04:49:59.740Z,942.65
2022-11-17T04:50:59.761Z,942.68
2022-11-17T04:51:59.851Z,942.63
2022-11-17T04:52:59.723Z,942.59
2022-11-17T04:54:00.941Z,942.53
2022-11-17T04:54:59.933Z,942.46
2022-11-17T04:55:59.811Z,942.47
2022-11-17T04:57:03.889Z,942.51
2022-11-17T04:57:59.872Z,942.56
2022-11-17T04:58:59.904Z,942.62
2022-11-17T04:59:59.802Z,942.66
2022-11-17T05:02:02.609Z,942.63
2022-11-17T05:02:59.867Z,942.67
2022-11-17T05:03:59.738Z,942.66
2022-11-17T05:04:59.883Z,942.73
2022-11-17T05:07:00.000Z,942.74
2022-11-17T05:08:00.952Z,942.77
2022-11-17T05:08:59.817Z,942.79
2022-11-17T05:09:59.906Z,942.78
2022-11-17T05:11:00.017Z,942.77
2022-11-17T05:11:59.934Z,942.73
2022-11-17T05:12:59.866Z,942.78
2022-11-17T05:13:59.999Z,942.84
2022-11-17T05:17:02.216Z,942.83
2022-11-17T05:18:00.027Z,942.81
2022-11-17T05:20:01.025Z,942.8
2022-11-17T05:20:59.922Z,942.81
2022-11-17T05:23:03.903Z,942.82
2022-11-17T05:23:59.896Z,942.8
2022-11-17T05:24:59.818Z,942.79
2022-11-17T05:26:01.121Z,942.77
2022-11-17T05:26:59.921Z,942.81
2022-11-17T05:27:59.884Z,942.8
2022-11-17T05:28:59.859Z,942.81
2022-11-17T05:29:59.829Z,942.84
2022-11-17T05:30:59.928Z,942.81
2022-11-17T05:32:00.033Z,942.84
2022-11-17T05:32:59.873Z,942.82
2022-11-17T05:33:59.970Z,942.79
2022-11-17T05:36:00.031Z,942.81
2022-11-17T05:36:59.851Z,942.76
2022-11-17T05:37:59.893Z,942.74
2022-11-17T05:39:00.056Z,942.7
2022-11-17T05:40:00.007Z,942.72
2022-11-17T05:41:00.095Z,942.73
2022-11-17T05:41:59.985Z,942.71
2022-11-17T05:43:01.156Z,942.67
2022-11-17T05:43:59.905Z,942.71
2022-11-17T05:44:59.997Z,942.74
2022-11-17T05:46:00.091Z,942.75
2022-11-17T05:46:59.969Z,942.77
2022-11-17T05:47:59.905Z,942.76
2022-11-17T05:48:59.822Z,942.75
2022-11-17T05:49:59.903Z,942.78
2022-11-17T05:51:00.065Z,942.79
2022-11-17T05:53:00.028Z,942.83
2022-11-17T05:53:59.974Z,942.84
2022-11-17T05:55:00.127Z,942.85
2022-11-17T05:55:59.927Z,942.83
2022-11-17T05:57:00.069Z,942.91
2022-11-17T05:58:01.278Z,942.95
2022-11-17T05:58:59.977Z,942.97
2022-11-17T05:59:59.985Z,942.96
2022-11-17T06:01:00.134Z,942.97
2022-11-17T06:01:59.917Z,942.98
2022-11-17T06:03:00.009Z,943.06
2022-11-17T06:04:01.440Z,943.09
2022-11-17T06:05:00.034Z,943.06
2022-11-17T06:06:00.195Z,943.07
2022-11-17T06:07:00.158Z,943.12
2022-11-17T06:08:00.081Z,943.13
2022-11-17T06:09:00.037Z,943.09
2022-11-17T06:10:00.150Z,943.06
2022-11-17T06:11:00.045Z,943.09
2022-11-17T06:12:05.432Z,943.11
2022-11-17T06:13:59.995Z,943.12
2022-11-17T06:14:59.987Z,943.17
2022-11-17T06:15:59.976Z,943.18
2022-11-17T06:17:00.022Z,943.17
2022-11-17T06:18:00.169Z,943.13
2022-11-17T06:18:59.983Z,943.15
2022-11-17T06:20:00.013Z,943.13
2022-11-17T06:21:01.342Z,943.08
2022-11-17T06:22:11.438Z,943.05
2022-11-17T06:23:00.044Z,943.02
2022-11-17T06:25:00.178Z,943.03
2022-11-17T06:27:00.155Z,942.94
2022-11-17T06:28:00.060Z,942.86
2022-11-17T06:29:00.039Z,942.82
2022-11-17T06:30:00.155Z,942.79
2022-11-17T06:31:00.023Z,942.67
2022-11-17T06:32:00.031Z,942.66
2022-11-17T06:33:00.042Z,942.67
2022-11-17T06:35:00.157Z,942.63
2022-11-17T06:36:00.076Z,942.61
2022-11-17T06:37:00.085Z,942.57
2022-11-17T06:38:00.133Z,942.55
2022-11-17T06:39:00.025Z,942.56
2022-11-17T06:40:00.041Z,942.59
2022-11-17T06:41:00.209Z,942.62
2022-11-17T06:42:00.173Z,942.68
2022-11-17T06:43:00.155Z,942.75
2022-11-17T06:44:00.168Z,942.78
2022-11-17T06:45:00.239Z,942.86
2022-11-17T06:47:01.560Z,942.91
2022-11-17T06:48:00.154Z,942.87
2022-11-17T06:50:00.157Z,942.84
2022-11-17T06:51:00.154Z,942.79
2022-11-17T06:52:00.069Z,942.82
2022-11-17T06:54:00.087Z,942.77
2022-11-17T06:55:00.075Z,942.76
2022-11-17T06:56:00.084Z,942.81
2022-11-17T06:57:00.146Z,942.85
2022-11-17T06:59:00.270Z,942.8
2022-11-17T07:00:00.150Z,942.78
2022-11-17T07:02:00.143Z,942.76
2022-11-17T07:03:00.234Z,942.79
2022-11-17T07:04:00.101Z,942.82
2022-11-17T07:05:00.281Z,942.8
2022-11-17T07:06:00.217Z,942.83
2022-11-17T07:07:00.264Z,942.86
2022-11-17T07:08:00.171Z,942.8
2022-11-17T07:09:00.232Z,942.78
2022-11-17T07:11:00.121Z,942.82
2022-11-17T07:12:00.143Z,942.86
2022-11-17T07:13:00.208Z,942.83
2022-11-17T07:14:00.180Z,942.92
2022-11-17T07:15:00.179Z,942.84
2022-11-17T07:16:00.137Z,942.86
2022-11-17T07:17:00.331Z,942.92
2022-11-17T07:19:00.169Z,942.96
2022-11-17T07:20:00.104Z,942.95
2022-11-17T07:22:00.157Z,942.93
2022-11-17T07:23:00.202Z,942.89
2022-11-17T07:24:00.236Z,942.87
2022-11-17T07:25:00.241Z,942.9
2022-11-17T07:26:00.300Z,942.84
2022-11-17T07:27:00.235Z,942.86
2022-11-17T07:29:00.286Z,942.78
2022-11-17T07:30:00.154Z,942.79
2022-11-17T07:31:00.397Z,942.82
2022-11-17T07:32:00.156Z,942.77
2022-11-17T07:33:00.297Z,942.74
2022-11-17T07:34:00.356Z,942.72
2022-11-17T07:35:00.288Z,943.13
2022-11-17T07:36:00.286Z,943.5
2022-11-17T07:37:00.125Z,943.63
2022-11-17T07:38:00.338Z,943.77
2022-11-17T07:39:00.252Z,943.93
2022-11-17T07:40:00.298Z,944.02
2022-11-17T07:41:00.271Z,944.08
2022-11-17T07:42:00.259Z,944.12
2022-11-17T07:43:00.382Z,944.08
2022-11-17T07:44:00.346Z,944.06
2022-11-17T07:45:00.377Z,943.99
2022-11-17T07:46:00.342Z,943.87
2022-11-17T07:47:00.306Z,943.92
2022-11-17T07:48:00.332Z,943.9
2022-11-17T07:49:00.238Z,943.93
2022-11-17T07:50:00.296Z,943.79
2022-11-17T07:51:00.278Z,943.77
2022-11-17T07:53:00.357Z,943.6
2022-11-17T07:54:01.380Z,943.53
2022-11-17T07:55:00.200Z,943.46
2022-11-17T07:56:00.359Z,943.43
2022-11-17T07:58:00.241Z,943.3
2022-11-17T07:59:00.284Z,943.25
2022-11-17T08:00:00.220Z,943.2
2022-11-17T08:01:00.480Z,943.15
2022-11-17T08:02:00.318Z,943.08
2022-11-17T08:03:00.437Z,943.05
2022-11-17T08:04:00.421Z,943.1
2022-11-17T08:05:00.320Z,943.09
2022-11-17T08:06:00.412Z,943.1
2022-11-17T08:07:00.261Z,943.09
2022-11-17T08:08:00.354Z,942.94
2022-11-17T08:10:00.357Z,942.97
2022-11-17T08:12:00.399Z,942.91
2022-11-17T08:13:00.422Z,942.84
2022-11-17T08:14:00.350Z,942.9
2022-11-17T08:15:00.251Z,942.81
2022-11-17T08:16:00.420Z,942.88
2022-11-17T08:17:00.484Z,942.95
2022-11-17T08:18:00.274Z,942.87
2022-11-17T08:19:00.385Z,942.86
2022-11-17T08:20:00.310Z,942.94
2022-11-17T08:21:00.425Z,942.96
2022-11-17T08:22:00.426Z,942.95
2022-11-17T08:23:00.306Z,942.89
2022-11-17T08:24:00.380Z,942.94
2022-11-17T08:25:00.348Z,943
2022-11-17T08:26:01.539Z,942.95
2022-11-17T08:28:00.305Z,942.94
2022-11-17T08:29:00.387Z,942.97
2022-11-17T08:30:00.280Z,943
2022-11-17T08:31:00.348Z,942.99
2022-11-17T08:33:00.485Z,942.98
2022-11-17T08:34:00.356Z,943.01
2022-11-17T08:35:00.293Z,943.08
2022-11-17T08:36:00.363Z,943.12
2022-11-17T08:38:00.383Z,943.25
2022-11-17T08:39:00.337Z,943.26
2022-11-17T08:40:00.371Z,943.25
2022-11-17T08:41:00.466Z,943.3
2022-11-17T08:42:00.390Z,943.33
2022-11-17T08:44:00.418Z,943.38
2022-11-17T08:45:00.300Z,943.45
2022-11-17T08:46:00.393Z,943.46
2022-11-17T08:47:00.527Z,943.39
2022-11-17T08:48:00.444Z,943.35
2022-11-17T08:49:00.464Z,943.39
2022-11-17T08:50:00.335Z,943.43
2022-11-17T08:52:00.503Z,943.35
2022-11-17T08:53:00.318Z,943.31
2022-11-17T08:54:00.528Z,943.32
2022-11-17T08:55:00.595Z,943.28
2022-11-17T08:56:00.373Z,943.3
2022-11-17T08:57:00.554Z,943.34
2022-11-17T08:58:00.491Z,943.32
2022-11-17T08:59:00.492Z,943.33
2022-11-17T09:00:00.375Z,943.4
2022-11-17T09:02:00.526Z,943.47
2022-11-17T09:03:00.448Z,943.51
2022-11-17T09:05:00.386Z,943.57
2022-11-17T09:06:00.477Z,943.56
2022-11-17T09:07:00.624Z,943.5
2022-11-17T09:08:16.155Z,943.54
2022-11-17T09:09:00.740Z,943.52
2022-11-17T09:10:01.743Z,943.58
2022-11-17T09:11:00.528Z,943.54
2022-11-17T09:12:00.486Z,943.53
2022-11-17T09:13:01.803Z,943.51
2022-11-17T09:14:00.542Z,943.52
2022-11-17T09:15:00.393Z,943.49
2022-11-17T09:16:00.594Z,943.53
2022-11-17T09:17:00.560Z,943.55
2022-11-17T09:18:00.527Z,943.56
2022-11-17T09:19:00.438Z,943.58
2022-11-17T09:20:00.395Z,943.55
2022-11-17T09:21:00.536Z,943.59
2022-11-17T09:22:01.831Z,943.65
2022-11-17T09:23:00.580Z,943.63
2022-11-17T09:24:00.475Z,943.65
2022-11-17T09:26:00.565Z,943.68
2022-11-17T09:27:00.505Z,943.69
2022-11-17T09:28:00.479Z,943.73
2022-11-17T09:29:00.408Z,943.74
2022-11-17T09:30:01.878Z,943.73
2022-11-17T09:31:01.535Z,943.77
2022-11-17T09:34:03.845Z,943.76
2022-11-17T09:35:00.644Z,943.8
2022-11-17T09:36:01.459Z,943.78
2022-11-17T09:37:00.481Z,943.85
2022-11-17T09:39:00.501Z,943.93
2022-11-17T09:40:00.531Z,943.95
2022-11-17T09:41:00.601Z,943.9
2022-11-17T09:42:00.497Z,943.89
2022-11-17T09:43:00.629Z,943.86
2022-11-17T09:44:00.491Z,943.88
2022-11-17T09:46:04.554Z,943.86
2022-11-17T09:48:12.598Z,943.89
2022-11-17T09:49:00.739Z,943.9
2022-11-17T09:50:00.532Z,943.91
2022-11-17T09:51:00.552Z,943.95
2022-11-17T09:52:00.548Z,944
2022-11-17T09:53:00.468Z,943.99
2022-11-17T09:54:01.544Z,944.09
2022-11-17T09:55:00.460Z,944.08
2022-11-17T09:57:00.492Z,944.06
2022-11-17T09:58:00.558Z,944.1
2022-11-17T10:00:00.594Z,944.14
2022-11-17T10:01:00.648Z,944.08
2022-11-17T10:02:00.698Z,944.1
2022-11-17T10:03:00.517Z,944.12
2022-11-17T10:04:00.643Z,944.09
2022-11-17T10:05:00.577Z,944.16
2022-11-17T10:06:00.746Z,944.13
2022-11-17T10:07:00.703Z,944.19
2022-11-17T10:09:00.721Z,944.21
2022-11-17T10:10:00.581Z,944.18
2022-11-17T10:11:00.848Z,944.13
2022-11-17T10:12:00.659Z,944.15
2022-11-17T10:13:00.680Z,944.2
2022-11-17T10:14:00.688Z,944.17
2022-11-17T10:15:00.619Z,944.16
2022-11-17T10:17:01.708Z,944.12
2022-11-17T10:18:00.558Z,944.15
2022-11-17T10:19:00.926Z,944.16
2022-11-17T10:20:00.652Z,944.12
2022-11-17T10:21:00.768Z,944.11
2022-11-17T10:22:00.648Z,944.05
2022-11-17T10:23:02.301Z,944.06
2022-11-17T10:24:00.667Z,944.08
2022-11-17T10:25:00.605Z,943.97
2022-11-17T10:26:00.573Z,943.96
2022-11-17T10:27:00.575Z,943.97
2022-11-17T10:28:00.815Z,943.96
2022-11-17T10:29:04.013Z,943.99
2022-11-17T10:31:00.645Z,943.98
2022-11-17T10:32:00.615Z,943.97
2022-11-17T10:33:00.705Z,943.99
2022-11-17T10:34:00.717Z,943.98
2022-11-17T10:37:00.651Z,944.02
2022-11-17T10:38:00.617Z,944.05
2022-11-17T10:39:00.610Z,944.07
2022-11-17T10:40:01.814Z,944.13
2022-11-17T10:41:00.770Z,944.16
2022-11-17T10:42:00.662Z,944.22
2022-11-17T10:43:00.694Z,944.16
2022-11-17T10:44:00.755Z,944.1
2022-11-17T10:45:00.659Z,944.01
2022-11-17T10:46:00.801Z,944.03
2022-11-17T10:47:02.883Z,944.06
2022-11-17T10:48:00.613Z,944.01
2022-11-17T10:49:00.671Z,944
2022-11-17T10:50:00.592Z,944.01
2022-11-17T10:51:00.757Z,944.02
2022-11-17T10:52:00.642Z,944.01
2022-11-17T10:54:00.754Z,943.99
2022-11-17T10:56:00.801Z,943.9
2022-11-17T10:57:00.691Z,943.92
2022-11-17T10:58:00.664Z,943.9
2022-11-17T10:59:00.824Z,943.99
2022-11-17T11:00:00.625Z,943.94
2022-11-17T11:01:00.740Z,943.92
2022-11-17T11:03:02.095Z,943.91
2022-11-17T11:04:00.855Z,943.95
2022-11-17T11:05:00.738Z,943.94
2022-11-17T11:06:00.726Z,943.89
2022-11-17T11:08:00.695Z,943.84
2022-11-17T11:09:00.897Z,943.85
2022-11-17T11:10:00.694Z,943.81
2022-11-17T11:11:00.829Z,943.84
2022-11-17T11:12:00.868Z,943.76
2022-11-17T11:13:00.862Z,943.78
2022-11-17T11:14:00.750Z,943.77
2022-11-17T11:15:02.016Z,943.78
2022-11-17T11:16:00.803Z,943.79
2022-11-17T11:17:00.793Z,943.8
2022-11-17T11:18:02.016Z,943.72
2022-11-17T11:19:00.750Z,943.71
2022-11-17T11:20:00.754Z,943.67
2022-11-17T11:21:02.143Z,943.63
2022-11-17T11:22:00.851Z,943.62
2022-11-17T11:23:00.839Z,943.53
2022-11-17T11:24:00.891Z,943.59
2022-11-17T11:25:00.989Z,943.55
2022-11-17T11:26:00.871Z,943.54
2022-11-17T11:29:00.796Z,943.48
2022-11-17T11:30:00.837Z,943.49
2022-11-17T11:32:00.932Z,943.44
2022-11-17T11:33:00.783Z,943.46
2022-11-17T11:34:00.785Z,943.45
2022-11-17T11:35:00.766Z,943.49
2022-11-17T11:36:00.865Z,943.43
2022-11-17T11:37:00.763Z,943.44
2022-11-17T11:38:02.221Z,943.42
2022-11-17T11:39:00.812Z,943.44
2022-11-17T11:40:00.814Z,943.46
2022-11-17T11:41:00.957Z,943.45
2022-11-17T11:42:04.822Z,943.47
2022-11-17T11:43:00.771Z,943.45
2022-11-17T11:44:00.983Z,943.44
2022-11-17T11:45:00.849Z,943.49
2022-11-17T11:46:00.947Z,943.53
2022-11-17T11:47:00.981Z,943.5
2022-11-17T11:48:00.879Z,943.53
2022-11-17T11:49:00.909Z,943.54
2022-11-17T11:50:01.742Z,943.49
2022-11-17T11:51:00.945Z,943.45
2022-11-17T11:52:00.827Z,943.47
2022-11-17T11:53:01.790Z,943.45
2022-11-17T11:54:00.843Z,943.48
2022-11-17T11:55:00.856Z,943.46
2022-11-17T11:56:00.814Z,943.5
2022-11-17T11:57:00.935Z,943.48
2022-11-17T11:58:00.898Z,943.46
2022-11-17T11:59:01.852Z,943.44
2022-11-17T12:00:04.255Z,943.45
2022-11-17T12:02:01.842Z,943.42
2022-11-17T12:03:00.943Z,943.45
2022-11-17T12:04:00.880Z,943.42
2022-11-17T12:07:00.891Z,943.5
2022-11-17T12:08:02.628Z,943.44
2022-11-17T12:09:00.957Z,943.55
2022-11-17T12:10:00.856Z,943.47
2022-11-17T12:11:00.821Z,943.48
2022-11-17T12:12:00.956Z,943.56
2022-11-17T12:13:00.968Z,943.55
2022-11-17T12:15:00.905Z,943.58
2022-11-17T12:16:00.911Z,943.62
2022-11-17T12:17:01.017Z,943.58
2022-11-17T12:18:00.982Z,943.57
2022-11-17T12:19:00.866Z,943.58
2022-11-17T12:20:03.574Z,943.57
2022-11-17T12:23:01.008Z,943.58
2022-11-17T12:24:00.838Z,943.54
2022-11-17T12:26:01.040Z,943.55
2022-11-17T12:27:01.034Z,943.58
2022-11-17T12:28:00.972Z,943.54
2022-11-17T12:29:00.968Z,943.53
2022-11-17T12:30:01.077Z,943.54
2022-11-17T12:31:05.262Z,943.52
2022-11-17T12:32:01.132Z,943.49
2022-11-17T12:33:00.928Z,943.47
2022-11-17T12:34:00.928Z,943.52
2022-11-17T12:36:01.112Z,943.5
2022-11-17T12:37:00.997Z,943.51
2022-11-17T12:38:00.967Z,943.54
2022-11-17T12:39:00.909Z,943.52
2022-11-17T12:40:00.873Z,943.51
2022-11-17T12:41:01.031Z,943.52
2022-11-17T12:42:00.886Z,943.55
2022-11-17T12:43:00.888Z,943.52
2022-11-17T12:44:00.902Z,943.58
2022-11-17T12:45:00.932Z,943.52
2022-11-17T12:46:00.945Z,943.49
2022-11-17T12:47:01.003Z,943.48
2022-11-17T12:48:26.684Z,943.5
2022-11-17T12:49:01.039Z,943.49
2022-11-17T12:50:00.866Z,943.48
2022-11-17T12:51:04.779Z,943.45
2022-11-17T12:52:01.213Z,943.44
2022-11-17T12:53:00.991Z,943.43
2022-11-17T12:54:01.057Z,943.42
2022-11-17T12:55:01.017Z,943.4
2022-11-17T12:56:01.035Z,943.45
2022-11-17T12:57:02.173Z,943.41
2022-11-17T13:00:00.916Z,943.4
2022-11-17T13:02:00.915Z,943.45
2022-11-17T13:03:01.054Z,943.46
2022-11-17T13:04:00.998Z,943.44
2022-11-17T13:05:01.094Z,943.45
2022-11-17T13:06:19.993Z,943.44
2022-11-17T13:07:01.363Z,943.48
2022-11-17T13:08:01.095Z,943.49
2022-11-17T13:09:02.221Z,943.5
2022-11-17T13:10:01.021Z,943.52
2022-11-17T13:11:00.996Z,943.54
2022-11-17T13:13:01.128Z,943.5
2022-11-17T13:14:01.180Z,943.51
2022-11-17T13:15:01.001Z,943.5
2022-11-17T13:17:01.057Z,943.59
2022-11-17T13:18:01.140Z,943.63
2022-11-17T13:19:01.066Z,943.64
2022-11-17T13:20:01.116Z,943.65
2022-11-17T13:22:01.087Z,943.6
2022-11-17T13:23:01.178Z,943.62
2022-11-17T13:24:01.128Z,943.61
2022-11-17T13:27:01.092Z,943.5
2022-11-17T13:28:04.612Z,943.47
2022-11-17T13:29:02.369Z,943.43
2022-11-17T13:30:01.049Z,943.4
2022-11-17T13:31:01.120Z,943.3
2022-11-17T13:33:01.094Z,943.25
2022-11-17T13:34:01.117Z,943.18
2022-11-17T13:36:01.065Z,943.13
2022-11-17T13:37:01.077Z,943.15
2022-11-17T13:38:01.055Z,943.17
2022-11-17T13:39:01.101Z,943.2
2022-11-17T13:40:01.018Z,943.17
2022-11-17T13:41:01.123Z,943.25
2022-11-17T13:42:01.098Z,943.3
2022-11-17T13:43:01.069Z,943.32
2022-11-17T13:44:01.087Z,943.24
2022-11-17T13:46:02.563Z,943.12
2022-11-17T13:47:01.034Z,943.13
2022-11-17T13:48:01.094Z,943.12
2022-11-17T13:49:01.231Z,943.1
2022-11-17T13:50:01.183Z,943.11
2022-11-17T13:51:01.206Z,943.12
2022-11-17T13:52:01.134Z,943.11
2022-11-17T13:53:01.219Z,943.1
2022-11-17T13:54:01.180Z,943.09
2022-11-17T13:56:01.234Z,943.11
2022-11-17T13:57:01.234Z,943.15
2022-11-17T13:58:01.112Z,943.14
2022-11-17T13:59:01.251Z,943.17
2022-11-17T14:01:02.237Z,943.14
2022-11-17T14:02:01.169Z,943.15
2022-11-17T14:03:01.233Z,943.16
2022-11-17T14:04:01.130Z,943.19
2022-11-17T14:06:01.119Z,943.21
2022-11-17T14:07:01.255Z,943.16
2022-11-17T14:08:01.199Z,943.21
2022-11-17T14:09:01.186Z,943.16
2022-11-17T14:10:01.114Z,943.19
2022-11-17T14:11:01.260Z,943.15
2022-11-17T14:14:01.230Z,943.17
2022-11-17T14:15:01.159Z,943.16